createdAt,value
2018-05-11T00:00:18.877Z,15.74
2018-05-11T00:02:46.474Z,15.74
2018-05-11T00:05:14.070Z,15.80
2018-05-11T00:07:41.695Z,15.78
2018-05-11T00:10:09.294Z,15.83
2018-05-11T00:12:36.913Z,15.88
2018-05-11T00:15:04.560Z,15.92
2018-05-11T00:17:32.156Z,15.98
2018-05-11T00:19:59.759Z,15.97
2018-05-11T00:22:27.505Z,16.03
2018-05-11T00:24:55.089Z,16.03
2018-05-11T00:27:22.684Z,16.07
2018-05-11T00:29:50.419Z,16.00
2018-05-11T00:32:18.007Z,15.95
2018-05-11T00:34:45.617Z,16.02
2018-05-11T00:37:13.283Z,16.09
2018-05-11T00:39:40.879Z,16.05
2018-05-11T00:42:08.465Z,16.01
2018-05-11T00:44:36.093Z,15.99
2018-05-11T00:47:03.688Z,15.88
2018-05-11T00:49:31.278Z,15.90
2018-05-11T00:51:58.929Z,15.91
2018-05-11T00:54:26.537Z,15.94
2018-05-11T00:56:54.139Z,16.00
2018-05-11T00:59:21.815Z,16.01
2018-05-11T01:01:49.405Z,16.10
2018-05-11T01:04:17.064Z,16.15
2018-05-11T01:06:44.706Z,16.16
2018-05-11T01:09:12.300Z,16.21
2018-05-11T01:11:39.899Z,16.22
2018-05-11T01:14:07.519Z,16.24
2018-05-11T01:16:35.113Z,16.26
2018-05-11T01:19:02.712Z,16.22
2018-05-11T01:21:30.352Z,16.27
2018-05-11T01:23:57.949Z,16.27
2018-05-11T01:26:25.547Z,16.20
2018-05-11T01:28:54.054Z,16.18
2018-05-11T01:31:21.660Z,16.21
2018-05-11T01:33:49.252Z,16.21
2018-05-11T01:36:16.861Z,16.21
2018-05-11T01:38:44.483Z,16.19
2018-05-11T01:41:12.078Z,16.12
2018-05-11T01:43:39.711Z,16.11
2018-05-11T01:46:07.315Z,16.07
2018-05-11T01:48:34.909Z,16.11
2018-05-11T01:51:02.538Z,16.07
2018-05-11T01:53:30.135Z,15.97
2018-05-11T01:55:57.725Z,15.98
2018-05-11T01:58:25.364Z,15.99
2018-05-11T02:00:52.968Z,16.01
2018-05-11T02:03:20.585Z,16.00
2018-05-11T02:05:48.204Z,15.96
2018-05-11T02:08:15.797Z,15.94
2018-05-11T02:10:43.384Z,15.83
2018-05-11T02:13:11.003Z,15.77
2018-05-11T02:15:38.600Z,15.72
2018-05-11T02:18:06.200Z,15.69
2018-05-11T02:20:33.843Z,15.65
2018-05-11T02:23:01.436Z,15.64
2018-05-11T02:25:29.033Z,15.61
2018-05-11T02:27:56.665Z,15.60
2018-05-11T02:30:24.268Z,15.64
2018-05-11T02:32:51.882Z,15.60
2018-05-11T02:35:19.512Z,15.57
2018-05-11T02:37:47.129Z,15.59
2018-05-11T02:40:14.716Z,15.56
2018-05-11T02:42:42.361Z,15.49
2018-05-11T02:45:09.957Z,15.54
2018-05-11T02:47:37.552Z,15.57
2018-05-11T02:50:05.179Z,15.58
2018-05-11T02:52:32.775Z,15.57
2018-05-11T02:55:00.365Z,15.62
2018-05-11T02:57:27.995Z,15.65
2018-05-11T02:59:55.589Z,15.65
2018-05-11T03:02:23.221Z,15.68
2018-05-11T03:04:50.845Z,15.71
2018-05-11T03:07:18.479Z,15.74
2018-05-11T03:09:46.076Z,15.75
2018-05-11T03:12:13.703Z,15.74
2018-05-11T03:14:41.307Z,15.72
2018-05-11T03:17:08.975Z,15.81
2018-05-11T03:19:36.578Z,15.76
2018-05-11T03:22:04.184Z,15.75
2018-05-11T03:24:31.783Z,15.80
2018-05-11T03:26:59.419Z,15.69
2018-05-11T03:29:27.105Z,15.70
2018-05-11T03:31:54.720Z,15.76
2018-05-11T03:34:22.354Z,15.79
2018-05-11T03:36:49.961Z,15.66
2018-05-11T03:39:17.585Z,15.74
2018-05-11T03:41:45.216Z,15.78
2018-05-11T03:44:12.821Z,15.81
2018-05-11T03:46:40.430Z,15.79
2018-05-11T03:49:08.076Z,15.78
2018-05-11T03:51:35.689Z,15.83
2018-05-11T03:54:03.284Z,15.83
2018-05-11T03:56:30.910Z,16.00
2018-05-11T03:58:58.505Z,16.08
2018-05-11T04:01:38.044Z,16.18
2018-05-11T04:04:17.351Z,16.23
2018-05-11T04:06:56.701Z,16.29
2018-05-11T04:09:24.296Z,16.27
2018-05-11T04:11:51.905Z,16.31
2018-05-11T04:14:19.553Z,16.28
2018-05-11T04:16:47.144Z,16.28
2018-05-11T04:19:14.801Z,16.31
2018-05-11T04:21:42.444Z,16.29
2018-05-11T04:24:10.044Z,16.35
2018-05-11T04:26:37.636Z,16.28
2018-05-11T04:29:05.265Z,16.31
2018-05-11T04:31:32.860Z,16.30
2018-05-11T04:34:00.469Z,16.28
2018-05-11T04:36:28.093Z,16.25
2018-05-11T04:38:55.693Z,16.35
2018-05-11T04:41:23.451Z,16.33
2018-05-11T04:43:51.093Z,16.38
2018-05-11T04:46:18.682Z,16.45
2018-05-11T04:48:46.280Z,16.59
2018-05-11T04:51:13.919Z,16.68
2018-05-11T04:53:41.523Z,16.73
2018-05-11T04:56:09.175Z,16.87
2018-05-11T04:58:36.906Z,16.99
2018-05-11T05:01:04.523Z,17.15
2018-05-11T05:03:32.138Z,17.32
2018-05-11T05:05:59.764Z,17.52
2018-05-11T05:08:27.356Z,17.68
2018-05-11T05:10:54.943Z,17.63
2018-05-11T05:13:22.557Z,17.69
2018-05-11T05:15:50.142Z,17.65
2018-05-11T05:18:17.747Z,17.51
2018-05-11T05:20:45.375Z,17.35
2018-05-11T05:23:12.970Z,17.30
2018-05-11T05:25:40.557Z,17.16
2018-05-11T05:28:08.166Z,17.13
2018-05-11T05:30:35.748Z,17.11
2018-05-11T05:33:03.394Z,17.05
2018-05-11T05:35:30.997Z,17.12
2018-05-11T05:37:58.584Z,17.21
2018-05-11T05:40:26.163Z,17.46
2018-05-11T05:42:53.825Z,17.84
2018-05-11T05:45:21.413Z,18.01
2018-05-11T05:47:49.025Z,18.32
2018-05-11T05:50:16.653Z,18.48
2018-05-11T05:52:44.236Z,18.58
2018-05-11T05:55:11.821Z,18.69
2018-05-11T05:57:39.440Z,18.79
2018-05-11T06:00:07.032Z,19.10
2018-05-11T06:02:34.710Z,19.42
2018-05-11T06:05:02.271Z,19.63
2018-05-11T06:07:29.875Z,19.52
2018-05-11T06:09:57.460Z,19.50
2018-05-11T06:12:25.084Z,19.54
2018-05-11T06:14:52.664Z,19.53
2018-05-11T06:17:20.241Z,19.40
2018-05-11T06:19:47.866Z,19.50
2018-05-11T06:22:15.447Z,19.41
2018-05-11T06:24:43.034Z,19.48
2018-05-11T06:27:10.649Z,19.62
2018-05-11T06:29:38.225Z,19.92
2018-05-11T06:32:05.836Z,20.17
2018-05-11T06:34:33.479Z,20.24
2018-05-11T06:37:01.068Z,20.06
2018-05-11T06:39:28.648Z,20.42
2018-05-11T06:41:56.278Z,20.89
2018-05-11T06:44:23.862Z,21.02
2018-05-11T06:46:51.442Z,21.62
2018-05-11T06:49:19.133Z,22.04
2018-05-11T06:51:46.722Z,22.69
2018-05-11T06:54:14.296Z,22.87
2018-05-11T06:56:41.914Z,23.37
2018-05-11T06:59:09.491Z,23.90
2018-05-11T07:01:37.154Z,24.88
2018-05-11T07:04:04.745Z,25.75
2018-05-11T07:06:32.338Z,26.36
2018-05-11T07:08:59.916Z,26.19
2018-05-11T07:11:27.537Z,24.80
2018-05-11T07:13:55.118Z,25.04
2018-05-11T07:16:22.706Z,26.83
2018-05-11T07:18:50.322Z,28.22
2018-05-11T07:21:17.926Z,29.89
2018-05-11T07:23:45.503Z,30.23
2018-05-11T07:26:13.124Z,31.28
2018-05-11T07:28:40.716Z,31.94
2018-05-11T07:31:08.306Z,31.92
2018-05-11T07:33:35.927Z,32.06
2018-05-11T07:36:03.602Z,31.34
2018-05-11T07:38:31.194Z,29.66
2018-05-11T07:40:58.823Z,29.55
2018-05-11T07:43:26.537Z,31.11
2018-05-11T07:45:54.030Z,29.88
2018-05-11T07:48:21.656Z,29.39
2018-05-11T07:50:49.249Z,29.08
2018-05-11T07:53:16.838Z,29.15
2018-05-11T07:55:44.455Z,29.74
2018-05-11T07:58:12.036Z,30.17
2018-05-11T08:00:39.632Z,29.09
2018-05-11T08:03:07.253Z,28.21
2018-05-11T08:05:34.846Z,28.73
2018-05-11T08:08:02.416Z,29.52
2018-05-11T08:10:30.074Z,30.60
2018-05-11T08:12:57.650Z,29.53
2018-05-11T08:15:25.235Z,29.77
2018-05-11T08:17:52.855Z,29.38
2018-05-11T08:20:20.436Z,29.74
2018-05-11T08:22:48.014Z,29.33
2018-05-11T08:25:15.618Z,28.16
2018-05-11T08:27:43.192Z,27.79
2018-05-11T08:30:10.776Z,27.00
2018-05-11T08:32:38.396Z,26.24
2018-05-11T08:35:05.984Z,24.84
2018-05-11T08:37:33.573Z,24.41
2018-05-11T08:40:01.201Z,23.88
2018-05-11T08:42:28.780Z,23.23
2018-05-11T08:44:56.374Z,23.05
2018-05-11T08:47:23.991Z,22.35
2018-05-11T08:49:51.581Z,22.10
2018-05-11T08:52:19.169Z,21.95
2018-05-11T08:54:46.800Z,21.32
2018-05-11T08:57:14.430Z,21.36
2018-05-11T08:59:42.004Z,21.25
2018-05-11T09:02:09.613Z,21.35
2018-05-11T09:04:37.205Z,21.62
2018-05-11T09:07:04.800Z,22.12
2018-05-11T09:09:32.437Z,23.34
2018-05-11T09:12:00.027Z,24.26
2018-05-11T09:14:27.611Z,24.40
2018-05-11T09:16:55.224Z,24.55
2018-05-11T09:19:22.857Z,24.89
2018-05-11T09:21:50.450Z,25.23
2018-05-11T09:24:18.084Z,24.98
2018-05-11T09:26:45.693Z,24.55
2018-05-11T09:29:13.280Z,24.85
2018-05-11T09:31:40.921Z,24.51
2018-05-11T09:34:08.499Z,24.17
2018-05-11T09:36:36.089Z,23.89
2018-05-11T09:39:03.817Z,23.67
2018-05-11T09:41:31.404Z,24.07
2018-05-11T09:43:58.983Z,24.70
2018-05-11T09:46:26.687Z,25.28
2018-05-11T09:48:54.289Z,26.10
2018-05-11T09:51:21.881Z,25.66
2018-05-11T09:53:49.501Z,24.98
2018-05-11T09:56:17.100Z,24.64
2018-05-11T09:58:44.701Z,24.36
2018-05-11T10:01:12.333Z,23.78
2018-05-11T10:03:39.918Z,23.67
2018-05-11T10:06:07.571Z,23.94
2018-05-11T10:08:35.177Z,25.13
2018-05-11T10:11:02.796Z,25.83
2018-05-11T10:13:30.384Z,26.44
2018-05-11T10:15:58.005Z,27.88
2018-05-11T10:18:25.592Z,28.74
2018-05-11T10:20:53.194Z,28.90
2018-05-11T10:23:20.935Z,29.47
2018-05-11T10:25:48.589Z,28.52
2018-05-11T10:28:16.160Z,29.19
2018-05-11T10:30:43.797Z,28.46
2018-05-11T10:33:11.382Z,28.34
2018-05-11T10:35:38.979Z,28.13
2018-05-11T10:38:06.601Z,26.63
2018-05-11T10:40:34.189Z,25.25
2018-05-11T10:43:01.773Z,24.97
2018-05-11T10:45:29.397Z,24.74
2018-05-11T10:47:56.976Z,24.14
2018-05-11T10:50:24.568Z,23.89
2018-05-11T10:52:52.195Z,23.21
2018-05-11T10:55:19.821Z,23.50
2018-05-11T10:57:47.426Z,23.04
2018-05-11T11:00:15.064Z,23.09
2018-05-11T11:02:42.722Z,22.69
2018-05-11T11:05:10.282Z,22.54
2018-05-11T11:07:37.900Z,22.72
2018-05-11T11:10:05.487Z,22.56
2018-05-11T11:12:33.066Z,22.67
2018-05-11T11:15:00.678Z,22.34
2018-05-11T11:17:28.310Z,22.62
2018-05-11T11:19:55.942Z,22.74
2018-05-11T11:22:23.586Z,22.67
2018-05-11T11:24:51.156Z,22.24
2018-05-11T11:27:18.732Z,21.98
2018-05-11T11:29:46.344Z,21.90
2018-05-11T11:32:13.915Z,21.56
2018-05-11T11:34:41.579Z,21.52
2018-05-11T11:37:09.155Z,21.36
2018-05-11T11:39:36.736Z,21.46
2018-05-11T11:42:04.349Z,21.50
2018-05-11T11:44:31.934Z,21.59
2018-05-11T11:46:59.549Z,21.78
2018-05-11T11:49:27.128Z,22.00
2018-05-11T11:51:54.745Z,22.21
2018-05-11T11:54:22.315Z,22.33
2018-05-11T11:56:49.907Z,22.30
2018-05-11T11:59:17.531Z,22.62
2018-05-11T12:01:45.121Z,23.00
2018-05-11T12:04:12.745Z,23.17
2018-05-11T12:06:40.456Z,23.12
2018-05-11T12:09:08.024Z,23.12
2018-05-11T12:11:35.648Z,23.17
2018-05-11T12:14:03.267Z,23.25
2018-05-11T12:16:30.849Z,23.28
2018-05-11T12:18:58.454Z,23.34
2018-05-11T12:21:26.085Z,23.49
2018-05-11T12:23:53.803Z,23.76
2018-05-11T12:26:21.487Z,24.07
2018-05-11T12:28:49.900Z,24.44
2018-05-11T12:31:17.508Z,24.98
2018-05-11T12:33:45.108Z,25.39
2018-05-11T12:36:12.729Z,25.65
2018-05-11T12:38:40.309Z,25.78
2018-05-11T12:41:07.947Z,26.30
2018-05-11T12:43:35.579Z,26.59
2018-05-11T12:46:03.246Z,26.25
2018-05-11T12:48:30.793Z,25.93
2018-05-11T12:50:58.412Z,25.68
2018-05-11T12:53:26.047Z,25.32
2018-05-11T12:55:53.709Z,24.99
2018-05-11T12:58:21.330Z,25.87
2018-05-11T13:00:48.908Z,25.88
2018-05-11T13:03:16.497Z,25.73
2018-05-11T13:05:44.123Z,25.42
2018-05-11T13:08:11.761Z,25.60
2018-05-11T13:10:39.365Z,25.67
2018-05-11T13:13:06.981Z,25.67
2018-05-11T13:15:34.569Z,25.77
2018-05-11T13:18:02.161Z,25.43
2018-05-11T13:20:29.808Z,25.54
2018-05-11T13:22:58.463Z,25.71
2018-05-11T13:25:26.058Z,25.29
2018-05-11T13:27:53.706Z,24.94
2018-05-11T13:30:21.319Z,25.16
2018-05-11T13:32:48.921Z,25.29
2018-05-11T13:35:16.556Z,24.94
2018-05-11T13:37:44.165Z,24.70
2018-05-11T13:40:11.746Z,24.56
2018-05-11T13:42:39.356Z,24.77
2018-05-11T13:45:07.913Z,24.31
2018-05-11T13:47:35.507Z,24.34
2018-05-11T13:50:03.132Z,24.43
2018-05-11T13:52:30.709Z,24.84
2018-05-11T13:54:58.294Z,24.92
2018-05-11T13:57:25.915Z,24.57
2018-05-11T13:59:53.537Z,24.52
2018-05-11T14:02:21.124Z,25.09
2018-05-11T14:04:48.788Z,24.88
2018-05-11T14:07:16.368Z,24.83
2018-05-11T14:09:43.945Z,25.08
2018-05-11T14:12:11.572Z,25.25
2018-05-11T14:14:39.189Z,24.86
2018-05-11T14:17:06.771Z,25.47
2018-05-11T14:19:34.408Z,25.01
2018-05-11T14:22:01.998Z,25.15
2018-05-11T14:24:29.594Z,25.37
2018-05-11T14:26:57.231Z,25.75
2018-05-11T14:29:24.831Z,25.33
2018-05-11T14:31:52.453Z,25.15
2018-05-11T14:34:22.180Z,25.20
2018-05-11T14:36:49.791Z,25.18
2018-05-11T14:39:22.013Z,25.39
2018-05-11T14:41:49.633Z,25.72
2018-05-11T14:44:19.001Z,25.78
2018-05-11T14:46:46.612Z,25.94
2018-05-11T14:49:14.332Z,25.80
2018-05-11T14:51:41.991Z,25.62
2018-05-11T14:54:09.710Z,25.70
2018-05-11T14:56:37.335Z,25.64
2018-05-11T14:59:04.945Z,25.83
2018-05-11T15:01:32.596Z,25.56
2018-05-11T15:04:00.218Z,25.41
2018-05-11T15:06:27.871Z,25.09
2018-05-11T15:08:55.447Z,25.06
2018-05-11T15:11:23.077Z,24.85
2018-05-11T15:13:50.672Z,24.43
2018-05-11T15:16:18.248Z,24.44
2018-05-11T15:18:45.890Z,24.62
2018-05-11T15:21:13.473Z,24.28
2018-05-11T15:23:41.062Z,24.35
2018-05-11T15:26:08.726Z,24.18
2018-05-11T15:28:36.321Z,23.99
2018-05-11T15:31:03.963Z,24.05
2018-05-11T15:33:31.594Z,24.05
2018-05-11T15:35:59.756Z,23.97
2018-05-11T15:38:27.331Z,23.72
2018-05-11T15:40:55.052Z,23.59
2018-05-11T15:43:22.642Z,23.55
2018-05-11T15:45:50.219Z,23.73
2018-05-11T15:48:17.832Z,23.84
2018-05-11T15:50:45.417Z,23.89
2018-05-11T15:53:13.000Z,24.01
2018-05-11T15:55:40.616Z,23.95
2018-05-11T15:58:08.201Z,24.04
2018-05-11T16:00:35.825Z,24.19
2018-05-11T16:03:03.477Z,24.38
2018-05-11T16:05:31.224Z,24.44
2018-05-11T16:07:58.849Z,24.57
2018-05-11T16:10:26.468Z,24.64
2018-05-11T16:12:54.129Z,24.68
2018-05-11T16:15:21.700Z,24.61
2018-05-11T16:17:49.319Z,24.57
2018-05-11T16:20:16.933Z,24.57
2018-05-11T16:22:44.518Z,24.50
2018-05-11T16:25:12.118Z,24.48
2018-05-11T16:27:39.683Z,24.25
2018-05-11T16:30:07.268Z,23.89
2018-05-11T16:32:34.968Z,23.84
2018-05-11T16:35:02.556Z,23.74
2018-05-11T16:37:30.120Z,23.57
2018-05-11T16:39:57.745Z,23.38
2018-05-11T16:42:25.320Z,23.28
2018-05-11T16:44:52.911Z,23.18
2018-05-11T16:47:20.560Z,23.06
2018-05-11T16:49:48.160Z,22.94
2018-05-11T16:52:15.756Z,22.95
2018-05-11T16:54:43.382Z,22.91
2018-05-11T16:57:10.968Z,22.89
2018-05-11T16:59:38.575Z,22.86
2018-05-11T17:02:06.306Z,22.76
2018-05-11T17:04:33.898Z,22.58
2018-05-11T17:07:01.488Z,22.38
2018-05-11T17:09:29.105Z,22.18
2018-05-11T17:11:56.692Z,21.96
2018-05-11T17:14:24.282Z,21.68
2018-05-11T17:16:51.898Z,21.23
2018-05-11T17:19:19.481Z,20.72
2018-05-11T17:21:47.072Z,20.26
2018-05-11T17:24:14.702Z,19.97
2018-05-11T17:26:42.293Z,19.83
2018-05-11T17:29:09.868Z,19.68
2018-05-11T17:31:37.485Z,19.58
2018-05-11T17:34:05.060Z,19.50
2018-05-11T17:36:32.702Z,19.39
2018-05-11T17:39:00.321Z,19.28
2018-05-11T17:41:27.919Z,19.12
2018-05-11T17:43:55.507Z,19.05
2018-05-11T17:46:23.134Z,18.97
2018-05-11T17:48:50.717Z,18.91
2018-05-11T17:51:18.299Z,18.78
2018-05-11T17:53:45.963Z,18.73
2018-05-11T17:56:13.590Z,18.62
2018-05-11T17:58:41.186Z,18.53
2018-05-11T18:01:08.819Z,18.44
2018-05-11T18:03:36.425Z,18.35
2018-05-11T18:06:04.021Z,18.33
2018-05-11T18:08:31.641Z,18.29
2018-05-11T18:10:59.241Z,18.24
2018-05-11T18:13:26.868Z,18.23
2018-05-11T18:15:54.490Z,18.25
2018-05-11T18:18:22.065Z,18.31
2018-05-11T18:20:49.646Z,18.35
2018-05-11T18:23:17.256Z,18.38
2018-05-11T18:25:44.843Z,18.38
2018-05-11T18:28:12.564Z,18.40
2018-05-11T18:30:40.214Z,18.29
2018-05-11T18:33:07.780Z,18.13
2018-05-11T18:35:35.365Z,18.09
2018-05-11T18:38:02.984Z,17.98
2018-05-11T18:40:30.568Z,17.84
2018-05-11T18:42:58.190Z,17.69
2018-05-11T18:45:25.867Z,17.51
2018-05-11T18:47:53.477Z,17.47
2018-05-11T18:50:21.071Z,17.48
2018-05-11T18:52:48.696Z,17.49
2018-05-11T18:55:16.318Z,17.48
2018-05-11T18:57:43.927Z,17.54
2018-05-11T19:00:11.613Z,17.52
2018-05-11T19:02:39.193Z,17.50
2018-05-11T19:05:06.740Z,17.46
2018-05-11T19:07:34.396Z,17.43
2018-05-11T19:10:01.981Z,17.36
2018-05-11T19:12:29.561Z,17.13
2018-05-11T19:14:57.185Z,16.90
2018-05-11T19:17:24.764Z,16.67
2018-05-11T19:19:52.359Z,16.55
2018-05-11T19:22:20.043Z,16.42
2018-05-11T19:24:48.825Z,16.33
2018-05-11T19:27:16.405Z,16.20
2018-05-11T19:29:44.005Z,16.12
2018-05-11T19:32:11.597Z,16.04
2018-05-11T19:34:39.246Z,15.85
2018-05-11T19:37:06.856Z,15.73
2018-05-11T19:39:34.449Z,15.65
2018-05-11T19:42:02.029Z,15.52
2018-05-11T19:44:29.656Z,15.50
2018-05-11T19:46:57.239Z,15.44
2018-05-11T19:49:25.787Z,15.46
2018-05-11T19:51:53.420Z,15.45
2018-05-11T19:54:20.997Z,15.37
2018-05-11T19:56:48.579Z,15.32
2018-05-11T19:59:16.218Z,15.40
2018-05-11T20:01:43.810Z,15.35
2018-05-11T20:04:11.422Z,15.35
2018-05-11T20:06:39.129Z,15.20
2018-05-11T20:09:06.731Z,15.14
2018-05-11T20:11:34.327Z,15.05
2018-05-11T20:14:01.917Z,15.02
2018-05-11T20:16:29.501Z,14.99
2018-05-11T20:18:57.069Z,15.07
2018-05-11T20:21:24.680Z,15.07
2018-05-11T20:23:52.289Z,15.12
2018-05-11T20:26:19.857Z,15.08
2018-05-11T20:28:48.015Z,15.04
2018-05-11T20:31:16.440Z,14.98
2018-05-11T20:33:44.917Z,14.87
2018-05-11T20:36:12.535Z,14.83
2018-05-11T20:38:45.548Z,14.79
2018-05-11T20:41:19.373Z,14.77
2018-05-11T20:43:52.885Z,14.75
2018-05-11T20:46:25.282Z,14.77
2018-05-11T20:48:54.147Z,14.80
2018-05-11T20:51:26.410Z,14.75
2018-05-11T20:53:54.001Z,14.70
2018-05-11T20:56:21.635Z,14.68
2018-05-11T20:58:49.222Z,14.66
2018-05-11T21:01:16.811Z,14.61
2018-05-11T21:03:44.414Z,14.63
2018-05-11T21:06:14.146Z,14.54
2018-05-11T21:08:41.876Z,14.42
2018-05-11T21:11:09.482Z,14.34
2018-05-11T21:13:37.058Z,14.27
2018-05-11T21:16:04.636Z,14.25
2018-05-11T21:18:32.253Z,14.20
2018-05-11T21:20:59.832Z,14.16
2018-05-11T21:23:27.422Z,14.10
2018-05-11T21:25:55.066Z,14.02
2018-05-11T21:28:22.683Z,13.92
2018-05-11T21:30:50.328Z,13.94
2018-05-11T21:33:17.955Z,13.97
2018-05-11T21:35:45.593Z,14.02
2018-05-11T21:38:13.205Z,13.90
2018-05-11T21:40:40.839Z,13.79
2018-05-11T21:43:08.469Z,13.73
2018-05-11T21:45:36.075Z,13.72
2018-05-11T21:48:08.700Z,13.69
2018-05-11T21:50:42.744Z,13.64
2018-05-11T21:53:12.224Z,13.58
2018-05-11T21:55:39.828Z,13.51
2018-05-11T21:58:07.393Z,13.53
2018-05-11T22:00:35.030Z,13.47
2018-05-11T22:03:02.613Z,13.41
2018-05-11T22:05:30.184Z,13.40
2018-05-11T22:07:57.797Z,13.45
2018-05-11T22:10:25.387Z,13.40
2018-05-11T22:12:52.978Z,13.36
2018-05-11T22:15:20.592Z,13.26
2018-05-11T22:17:48.176Z,13.16
2018-05-11T22:20:15.773Z,13.24
2018-05-11T22:22:43.425Z,13.24
2018-05-11T22:25:11.012Z,13.18
2018-05-11T22:27:38.606Z,13.13
2018-05-11T22:30:06.244Z,13.08
2018-05-11T22:32:33.815Z,13.05
2018-05-11T22:35:01.400Z,13.06
2018-05-11T22:37:29.027Z,13.19
2018-05-11T22:39:56.628Z,13.17
2018-05-11T22:42:24.208Z,13.16
2018-05-11T22:44:51.825Z,13.08
2018-05-11T22:47:19.399Z,13.04
2018-05-11T22:49:46.979Z,13.00
2018-05-11T22:52:14.619Z,12.90
2018-05-11T22:54:42.201Z,12.83
2018-05-11T22:57:09.793Z,12.91
2018-05-11T22:59:37.397Z,12.87
2018-05-11T23:02:04.969Z,12.80
2018-05-11T23:04:32.549Z,12.78
2018-05-11T23:07:00.155Z,12.73
2018-05-11T23:09:27.743Z,12.72
2018-05-11T23:11:55.323Z,12.68
2018-05-11T23:16:55.703Z,12.65
2018-05-11T23:19:23.327Z,12.62
2018-05-11T23:21:50.909Z,12.58
2018-05-11T23:24:18.489Z,12.49
2018-05-11T23:26:46.106Z,12.56
2018-05-11T23:29:13.688Z,12.50
2018-05-11T23:31:41.264Z,12.57
2018-05-11T23:34:08.884Z,12.55
2018-05-11T23:36:36.464Z,12.46
2018-05-11T23:39:04.123Z,12.38
2018-05-11T23:41:31.734Z,12.37
2018-05-11T23:43:59.328Z,12.42
2018-05-11T23:46:26.914Z,12.47
2018-05-11T23:48:54.529Z,12.37
2018-05-11T23:51:22.110Z,12.30
2018-05-11T23:53:49.683Z,12.35
2018-05-11T23:56:17.305Z,12.28
2018-05-11T23:58:44.892Z,12.33
